sensor_id;sensor_type;location;lat;lon;timestamp;P1;durP1;ratioP1;P2;durP2;ratioP2
75823;SDS011;64457;51.976;9.834;2023-05-16T00:01:55;23.03;;;12.07;;
75823;SDS011;64457;51.976;9.834;2023-05-16T00:04:22;21.40;;;11.70;;
75823;SDS011;64457;51.976;9.834;2023-05-16T00:06:50;23.10;;;12.20;;
75823;SDS011;64457;51.976;9.834;2023-05-16T00:09:17;21.43;;;12.10;;
75823;SDS011;64457;51.976;9.834;2023-05-16T00:11:47;23.83;;;12.33;;
75823;SDS011;64457;51.976;9.834;2023-05-16T00:14:16;24.23;;;12.37;;
75823;SDS011;64457;51.976;9.834;2023-05-16T00:16:45;22.33;;;12.60;;
75823;SDS011;64457;51.976;9.834;2023-05-16T00:19:12;22.27;;;11.97;;
75823;SDS011;64457;51.976;9.834;2023-05-16T00:21:39;22.20;;;12.60;;
75823;SDS011;64457;51.976;9.834;2023-05-16T00:24:07;20.97;;;12.60;;
75823;SDS011;64457;51.976;9.834;2023-05-16T00:26:34;22.80;;;12.57;;
75823;SDS011;64457;51.976;9.834;2023-05-16T00:29:01;25.10;;;12.10;;
75823;SDS011;64457;51.976;9.834;2023-05-16T00:31:30;21.47;;;11.63;;
75823;SDS011;64457;51.976;9.834;2023-05-16T00:33:57;24.70;;;12.83;;
75823;SDS011;64457;51.976;9.834;2023-05-16T00:36:24;23.57;;;12.57;;
75823;SDS011;64457;51.976;9.834;2023-05-16T00:38:53;24.80;;;12.00;;
75823;SDS011;64457;51.976;9.834;2023-05-16T00:41:20;23.87;;;12.23;;
75823;SDS011;64457;51.976;9.834;2023-05-16T00:43:47;22.23;;;12.13;;
75823;SDS011;64457;51.976;9.834;2023-05-16T00:46:15;34.83;;;12.73;;
75823;SDS011;64457;51.976;9.834;2023-05-16T00:48:43;22.10;;;12.10;;
75823;SDS011;64457;51.976;9.834;2023-05-16T00:51:11;24.60;;;12.57;;
75823;SDS011;64457;51.976;9.834;2023-05-16T00:53:38;27.53;;;13.67;;
75823;SDS011;64457;51.976;9.834;2023-05-16T00:56:05;24.90;;;13.10;;
75823;SDS011;64457;51.976;9.834;2023-05-16T00:58:33;23.77;;;12.03;;
75823;SDS011;64457;51.976;9.834;2023-05-16T01:01:00;22.77;;;12.00;;
75823;SDS011;64457;51.976;9.834;2023-05-16T01:03:29;22.10;;;12.27;;
75823;SDS011;64457;51.976;9.834;2023-05-16T01:05:58;26.73;;;12.27;;
75823;SDS011;64457;51.976;9.834;2023-05-16T01:08:25;23.13;;;11.73;;
75823;SDS011;64457;51.976;9.834;2023-05-16T01:10:57;20.70;;;10.43;;
75823;SDS011;64457;51.976;9.834;2023-05-16T01:13:32;20.67;;;11.77;;
75823;SDS011;64457;51.976;9.834;2023-05-16T01:16:12;21.70;;;10.93;;
75823;SDS011;64457;51.976;9.834;2023-05-16T01:18:50;20.80;;;11.30;;
75823;SDS011;64457;51.976;9.834;2023-05-16T01:21:28;20.30;;;11.23;;
75823;SDS011;64457;51.976;9.834;2023-05-16T01:24:11;23.23;;;11.57;;
75823;SDS011;64457;51.976;9.834;2023-05-16T01:26:44;21.40;;;11.03;;
75823;SDS011;64457;51.976;9.834;2023-05-16T01:29:13;19.43;;;10.60;;
75823;SDS011;64457;51.976;9.834;2023-05-16T01:31:41;22.60;;;10.03;;
75823;SDS011;64457;51.976;9.834;2023-05-16T01:34:08;22.33;;;11.43;;
75823;SDS011;64457;51.976;9.834;2023-05-16T01:36:41;20.80;;;10.60;;
75823;SDS011;64457;51.976;9.834;2023-05-16T01:39:17;19.80;;;10.27;;
75823;SDS011;64457;51.976;9.834;2023-05-16T01:41:59;19.67;;;10.80;;
75823;SDS011;64457;51.976;9.834;2023-05-16T01:44:30;20.97;;;10.27;;
75823;SDS011;64457;51.976;9.834;2023-05-16T01:47:02;21.10;;;10.37;;
75823;SDS011;64457;51.976;9.834;2023-05-16T01:49:38;47.27;;;9.87;;
75823;SDS011;64457;51.976;9.834;2023-05-16T01:52:12;18.93;;;10.00;;
75823;SDS011;64457;51.976;9.834;2023-05-16T01:54:44;19.70;;;10.03;;
75823;SDS011;64457;51.976;9.834;2023-05-16T01:57:18;17.57;;;9.53;;
75823;SDS011;64457;51.976;9.834;2023-05-16T01:59:47;17.20;;;9.30;;
75823;SDS011;64457;51.976;9.834;2023-05-16T02:02:16;18.90;;;9.40;;
75823;SDS011;64457;51.976;9.834;2023-05-16T02:04:44;22.30;;;9.67;;
75823;SDS011;64457;51.976;9.834;2023-05-16T02:07:11;16.50;;;9.60;;
75823;SDS011;64457;51.976;9.834;2023-05-16T02:09:39;16.77;;;8.70;;
75823;SDS011;64457;51.976;9.834;2023-05-16T02:12:06;19.93;;;9.73;;
75823;SDS011;64457;51.976;9.834;2023-05-16T02:14:35;17.30;;;8.53;;
75823;SDS011;64457;51.976;9.834;2023-05-16T02:17:02;16.63;;;8.70;;
75823;SDS011;64457;51.976;9.834;2023-05-16T02:19:30;17.13;;;8.97;;
75823;SDS011;64457;51.976;9.834;2023-05-16T02:21:57;19.73;;;8.97;;
75823;SDS011;64457;51.976;9.834;2023-05-16T02:24:24;17.07;;;8.83;;
75823;SDS011;64457;51.976;9.834;2023-05-16T02:26:54;15.13;;;7.80;;
75823;SDS011;64457;51.976;9.834;2023-05-16T02:29:22;14.07;;;8.10;;
75823;SDS011;64457;51.976;9.834;2023-05-16T02:31:50;19.40;;;8.97;;
75823;SDS011;64457;51.976;9.834;2023-05-16T02:34:18;15.40;;;8.57;;
75823;SDS011;64457;51.976;9.834;2023-05-16T02:36:45;20.00;;;8.10;;
75823;SDS011;64457;51.976;9.834;2023-05-16T02:39:12;15.83;;;8.37;;
75823;SDS011;64457;51.976;9.834;2023-05-16T02:41:39;17.97;;;8.33;;
75823;SDS011;64457;51.976;9.834;2023-05-16T02:44:07;16.70;;;7.53;;
75823;SDS011;64457;51.976;9.834;2023-05-16T02:46:34;13.50;;;7.20;;
75823;SDS011;64457;51.976;9.834;2023-05-16T02:49:02;14.77;;;7.30;;
75823;SDS011;64457;51.976;9.834;2023-05-16T02:51:30;15.53;;;8.23;;
75823;SDS011;64457;51.976;9.834;2023-05-16T02:53:57;17.70;;;8.20;;
75823;SDS011;64457;51.976;9.834;2023-05-16T02:56:25;14.53;;;7.03;;
75823;SDS011;64457;51.976;9.834;2023-05-16T02:58:53;13.87;;;6.70;;
75823;SDS011;64457;51.976;9.834;2023-05-16T03:01:21;16.23;;;7.20;;
75823;SDS011;64457;51.976;9.834;2023-05-16T03:03:48;13.37;;;7.30;;
75823;SDS011;64457;51.976;9.834;2023-05-16T03:06:17;14.77;;;6.47;;
75823;SDS011;64457;51.976;9.834;2023-05-16T03:08:44;13.57;;;5.97;;
75823;SDS011;64457;51.976;9.834;2023-05-16T03:11:11;12.30;;;5.20;;
75823;SDS011;64457;51.976;9.834;2023-05-16T03:13:41;18.80;;;6.00;;
75823;SDS011;64457;51.976;9.834;2023-05-16T03:16:08;14.40;;;5.93;;
75823;SDS011;64457;51.976;9.834;2023-05-16T03:18:36;12.13;;;5.73;;
75823;SDS011;64457;51.976;9.834;2023-05-16T03:21:03;10.27;;;4.87;;
75823;SDS011;64457;51.976;9.834;2023-05-16T03:23:32;16.50;;;4.90;;
75823;SDS011;64457;51.976;9.834;2023-05-16T03:25:59;12.70;;;5.13;;
75823;SDS011;64457;51.976;9.834;2023-05-16T03:28:27;10.80;;;4.70;;
75823;SDS011;64457;51.976;9.834;2023-05-16T03:30:54;14.23;;;5.10;;
75823;SDS011;64457;51.976;9.834;2023-05-16T03:33:21;13.93;;;5.30;;
75823;SDS011;64457;51.976;9.834;2023-05-16T03:35:49;10.20;;;5.20;;
75823;SDS011;64457;51.976;9.834;2023-05-16T03:38:17;12.03;;;5.20;;
75823;SDS011;64457;51.976;9.834;2023-05-16T03:40:46;11.60;;;5.10;;
75823;SDS011;64457;51.976;9.834;2023-05-16T03:43:13;10.87;;;4.50;;
75823;SDS011;64457;51.976;9.834;2023-05-16T03:45:40;10.93;;;5.20;;
75823;SDS011;64457;51.976;9.834;2023-05-16T03:48:08;13.00;;;4.80;;
75823;SDS011;64457;51.976;9.834;2023-05-16T03:50:36;9.80;;;4.07;;
75823;SDS011;64457;51.976;9.834;2023-05-16T03:53:03;12.13;;;4.47;;
75823;SDS011;64457;51.976;9.834;2023-05-16T03:55:31;9.27;;;3.70;;
75823;SDS011;64457;51.976;9.834;2023-05-16T03:57:59;11.77;;;4.03;;
75823;SDS011;64457;51.976;9.834;2023-05-16T04:00:27;18.53;;;3.87;;
75823;SDS011;64457;51.976;9.834;2023-05-16T04:02:55;11.17;;;3.83;;
75823;SDS011;64457;51.976;9.834;2023-05-16T04:05:22;10.27;;;3.73;;
75823;SDS011;64457;51.976;9.834;2023-05-16T04:07:49;8.13;;;3.13;;
75823;SDS011;64457;51.976;9.834;2023-05-16T04:10:18;9.90;;;3.57;;
75823;SDS011;64457;51.976;9.834;2023-05-16T04:12:46;9.70;;;3.40;;
75823;SDS011;64457;51.976;9.834;2023-05-16T04:15:14;8.17;;;2.90;;
75823;SDS011;64457;51.976;9.834;2023-05-16T04:17:41;10.73;;;3.17;;
75823;SDS011;64457;51.976;9.834;2023-05-16T04:20:09;8.27;;;2.50;;
75823;SDS011;64457;51.976;9.834;2023-05-16T04:22:38;10.27;;;2.70;;
75823;SDS011;64457;51.976;9.834;2023-05-16T04:25:06;12.70;;;2.80;;
75823;SDS011;64457;51.976;9.834;2023-05-16T04:27:35;8.50;;;2.70;;
75823;SDS011;64457;51.976;9.834;2023-05-16T04:30:03;10.00;;;2.10;;
75823;SDS011;64457;51.976;9.834;2023-05-16T04:32:32;12.77;;;2.57;;
75823;SDS011;64457;51.976;9.834;2023-05-16T04:35:03;11.73;;;2.90;;
75823;SDS011;64457;51.976;9.834;2023-05-16T04:37:33;7.83;;;2.40;;
75823;SDS011;64457;51.976;9.834;2023-05-16T04:40:03;11.63;;;2.50;;
75823;SDS011;64457;51.976;9.834;2023-05-16T04:42:34;11.30;;;2.53;;
75823;SDS011;64457;51.976;9.834;2023-05-16T04:45:01;9.30;;;3.13;;
75823;SDS011;64457;51.976;9.834;2023-05-16T04:47:31;14.10;;;3.80;;
75823;SDS011;64457;51.976;9.834;2023-05-16T04:50:04;13.93;;;4.20;;
75823;SDS011;64457;51.976;9.834;2023-05-16T04:52:34;14.00;;;4.00;;
75823;SDS011;64457;51.976;9.834;2023-05-16T04:55:03;11.70;;;3.67;;
75823;SDS011;64457;51.976;9.834;2023-05-16T04:57:32;9.03;;;3.77;;
75823;SDS011;64457;51.976;9.834;2023-05-16T04:59:59;12.13;;;4.00;;
75823;SDS011;64457;51.976;9.834;2023-05-16T05:02:26;18.67;;;4.17;;
75823;SDS011;64457;51.976;9.834;2023-05-16T05:04:55;17.37;;;4.40;;
75823;SDS011;64457;51.976;9.834;2023-05-16T05:07:22;18.53;;;3.90;;
75823;SDS011;64457;51.976;9.834;2023-05-16T05:09:52;11.73;;;3.80;;
75823;SDS011;64457;51.976;9.834;2023-05-16T05:12:20;15.60;;;4.50;;
75823;SDS011;64457;51.976;9.834;2023-05-16T05:14:47;12.37;;;4.00;;
75823;SDS011;64457;51.976;9.834;2023-05-16T05:17:14;13.67;;;4.03;;
75823;SDS011;64457;51.976;9.834;2023-05-16T05:19:42;19.03;;;3.93;;
75823;SDS011;64457;51.976;9.834;2023-05-16T05:22:11;14.30;;;3.63;;
75823;SDS011;64457;51.976;9.834;2023-05-16T05:24:38;13.47;;;4.03;;
75823;SDS011;64457;51.976;9.834;2023-05-16T05:27:05;23.13;;;4.30;;
75823;SDS011;64457;51.976;9.834;2023-05-16T05:29:33;13.00;;;3.43;;
75823;SDS011;64457;51.976;9.834;2023-05-16T05:32:00;12.13;;;4.20;;
75823;SDS011;64457;51.976;9.834;2023-05-16T05:34:27;12.20;;;3.80;;
75823;SDS011;64457;51.976;9.834;2023-05-16T05:36:54;17.93;;;4.47;;
75823;SDS011;64457;51.976;9.834;2023-05-16T05:39:24;12.60;;;3.37;;
75823;SDS011;64457;51.976;9.834;2023-05-16T05:41:51;18.23;;;3.90;;
75823;SDS011;64457;51.976;9.834;2023-05-16T05:44:18;14.80;;;3.93;;
75823;SDS011;64457;51.976;9.834;2023-05-16T05:46:45;19.27;;;4.60;;
75823;SDS011;64457;51.976;9.834;2023-05-16T05:49:13;16.67;;;4.33;;
75823;SDS011;64457;51.976;9.834;2023-05-16T05:51:40;15.67;;;4.53;;
75823;SDS011;64457;51.976;9.834;2023-05-16T05:54:07;15.73;;;4.90;;
75823;SDS011;64457;51.976;9.834;2023-05-16T05:56:36;14.97;;;4.47;;
75823;SDS011;64457;51.976;9.834;2023-05-16T05:59:03;15.47;;;4.53;;
75823;SDS011;64457;51.976;9.834;2023-05-16T06:01:30;16.93;;;4.80;;
75823;SDS011;64457;51.976;9.834;2023-05-16T06:03:58;18.27;;;5.73;;
75823;SDS011;64457;51.976;9.834;2023-05-16T06:06:25;21.67;;;5.60;;
75823;SDS011;64457;51.976;9.834;2023-05-16T06:08:53;15.53;;;4.63;;
75823;SDS011;64457;51.976;9.834;2023-05-16T06:11:20;19.37;;;4.10;;
75823;SDS011;64457;51.976;9.834;2023-05-16T06:13:50;15.57;;;4.10;;
75823;SDS011;64457;51.976;9.834;2023-05-16T06:16:18;18.20;;;5.57;;
75823;SDS011;64457;51.976;9.834;2023-05-16T06:18:49;25.30;;;4.60;;
75823;SDS011;64457;51.976;9.834;2023-05-16T06:21:16;16.97;;;4.20;;
75823;SDS011;64457;51.976;9.834;2023-05-16T06:23:43;20.87;;;4.47;;
75823;SDS011;64457;51.976;9.834;2023-05-16T06:26:10;15.90;;;3.73;;
75823;SDS011;64457;51.976;9.834;2023-05-16T06:28:37;17.07;;;4.30;;
75823;SDS011;64457;51.976;9.834;2023-05-16T06:31:06;11.80;;;4.00;;
75823;SDS011;64457;51.976;9.834;2023-05-16T06:33:33;24.03;;;5.47;;
75823;SDS011;64457;51.976;9.834;2023-05-16T06:36:01;22.10;;;4.50;;
75823;SDS011;64457;51.976;9.834;2023-05-16T06:38:28;17.47;;;3.97;;
75823;SDS011;64457;51.976;9.834;2023-05-16T06:40:56;17.80;;;4.53;;
75823;SDS011;64457;51.976;9.834;2023-05-16T06:43:24;13.50;;;3.70;;
75823;SDS011;64457;51.976;9.834;2023-05-16T06:45:52;16.77;;;3.50;;
75823;SDS011;64457;51.976;9.834;2023-05-16T06:48:20;17.40;;;3.60;;
75823;SDS011;64457;51.976;9.834;2023-05-16T06:50:48;14.43;;;3.40;;
75823;SDS011;64457;51.976;9.834;2023-05-16T06:53:16;15.60;;;3.70;;
75823;SDS011;64457;51.976;9.834;2023-05-16T06:55:43;11.80;;;2.90;;
75823;SDS011;64457;51.976;9.834;2023-05-16T06:58:11;18.33;;;2.80;;
75823;SDS011;64457;51.976;9.834;2023-05-16T07:00:38;20.40;;;3.70;;
75823;SDS011;64457;51.976;9.834;2023-05-16T07:03:06;17.03;;;3.23;;
75823;SDS011;64457;51.976;9.834;2023-05-16T07:05:34;17.60;;;3.40;;
75823;SDS011;64457;51.976;9.834;2023-05-16T07:08:02;14.83;;;3.03;;
75823;SDS011;64457;51.976;9.834;2023-05-16T07:10:29;19.27;;;2.43;;
75823;SDS011;64457;51.976;9.834;2023-05-16T07:12:57;14.87;;;2.90;;
75823;SDS011;64457;51.976;9.834;2023-05-16T07:15:25;18.60;;;3.60;;
75823;SDS011;64457;51.976;9.834;2023-05-16T07:17:52;14.83;;;2.83;;
75823;SDS011;64457;51.976;9.834;2023-05-16T07:20:20;16.40;;;2.27;;
75823;SDS011;64457;51.976;9.834;2023-05-16T07:22:48;14.00;;;2.33;;
75823;SDS011;64457;51.976;9.834;2023-05-16T07:25:16;12.00;;;2.23;;
75823;SDS011;64457;51.976;9.834;2023-05-16T07:27:43;14.03;;;2.40;;
75823;SDS011;64457;51.976;9.834;2023-05-16T07:30:11;17.57;;;2.60;;
75823;SDS011;64457;51.976;9.834;2023-05-16T07:32:40;16.97;;;2.20;;
75823;SDS011;64457;51.976;9.834;2023-05-16T07:35:07;9.60;;;1.63;;
75823;SDS011;64457;51.976;9.834;2023-05-16T07:37:35;13.40;;;2.10;;
75823;SDS011;64457;51.976;9.834;2023-05-16T07:40:07;14.50;;;2.00;;
75823;SDS011;64457;51.976;9.834;2023-05-16T07:42:35;10.93;;;2.17;;
75823;SDS011;64457;51.976;9.834;2023-05-16T07:45:03;12.70;;;2.17;;
75823;SDS011;64457;51.976;9.834;2023-05-16T07:47:32;9.73;;;2.00;;
75823;SDS011;64457;51.976;9.834;2023-05-16T07:50:00;13.60;;;2.60;;
75823;SDS011;64457;51.976;9.834;2023-05-16T07:52:27;14.30;;;2.27;;
75823;SDS011;64457;51.976;9.834;2023-05-16T07:54:55;16.03;;;2.50;;
75823;SDS011;64457;51.976;9.834;2023-05-16T07:57:23;10.93;;;1.70;;
75823;SDS011;64457;51.976;9.834;2023-05-16T07:59:51;10.50;;;1.57;;
75823;SDS011;64457;51.976;9.834;2023-05-16T08:02:19;13.33;;;2.07;;
75823;SDS011;64457;51.976;9.834;2023-05-16T08:04:46;14.13;;;2.03;;
75823;SDS011;64457;51.976;9.834;2023-05-16T08:07:14;10.83;;;1.80;;
75823;SDS011;64457;51.976;9.834;2023-05-16T08:09:41;11.80;;;1.83;;
75823;SDS011;64457;51.976;9.834;2023-05-16T08:12:08;12.70;;;2.20;;
75823;SDS011;64457;51.976;9.834;2023-05-16T08:14:37;11.47;;;1.60;;
75823;SDS011;64457;51.976;9.834;2023-05-16T08:17:04;11.30;;;1.60;;
75823;SDS011;64457;51.976;9.834;2023-05-16T08:19:32;11.17;;;1.60;;
75823;SDS011;64457;51.976;9.834;2023-05-16T08:22:01;11.30;;;2.00;;
75823;SDS011;64457;51.976;9.834;2023-05-16T08:24:31;11.77;;;2.00;;
75823;SDS011;64457;51.976;9.834;2023-05-16T08:26:59;11.27;;;1.80;;
75823;SDS011;64457;51.976;9.834;2023-05-16T08:29:26;16.80;;;2.00;;
75823;SDS011;64457;51.976;9.834;2023-05-16T08:31:55;10.50;;;2.03;;
75823;SDS011;64457;51.976;9.834;2023-05-16T08:34:22;15.33;;;1.87;;
75823;SDS011;64457;51.976;9.834;2023-05-16T08:36:49;10.20;;;1.80;;
75823;SDS011;64457;51.976;9.834;2023-05-16T08:39:16;14.80;;;1.90;;
75823;SDS011;64457;51.976;9.834;2023-05-16T08:41:43;11.37;;;1.70;;
75823;SDS011;64457;51.976;9.834;2023-05-16T08:44:11;11.30;;;2.27;;
75823;SDS011;64457;51.976;9.834;2023-05-16T08:46:46;10.20;;;1.50;;
75823;SDS011;64457;51.976;9.834;2023-05-16T08:49:19;7.80;;;1.33;;
75823;SDS011;64457;51.976;9.834;2023-05-16T08:51:47;13.80;;;1.90;;
75823;SDS011;64457;51.976;9.834;2023-05-16T08:54:17;9.20;;;1.53;;
75823;SDS011;64457;51.976;9.834;2023-05-16T08:56:44;16.67;;;1.50;;
75823;SDS011;64457;51.976;9.834;2023-05-16T08:59:14;7.50;;;1.27;;
75823;SDS011;64457;51.976;9.834;2023-05-16T09:01:43;15.30;;;1.70;;
75823;SDS011;64457;51.976;9.834;2023-05-16T09:04:10;9.73;;;1.60;;
75823;SDS011;64457;51.976;9.834;2023-05-16T09:06:39;8.03;;;1.20;;
75823;SDS011;64457;51.976;9.834;2023-05-16T09:09:06;12.20;;;1.47;;
75823;SDS011;64457;51.976;9.834;2023-05-16T09:11:37;12.63;;;1.30;;
75823;SDS011;64457;51.976;9.834;2023-05-16T09:14:04;9.40;;;1.30;;
75823;SDS011;64457;51.976;9.834;2023-05-16T09:16:34;11.70;;;1.63;;
75823;SDS011;64457;51.976;9.834;2023-05-16T09:19:01;9.57;;;1.63;;
75823;SDS011;64457;51.976;9.834;2023-05-16T09:21:29;10.30;;;1.63;;
75823;SDS011;64457;51.976;9.834;2023-05-16T09:24:02;10.50;;;1.80;;
75823;SDS011;64457;51.976;9.834;2023-05-16T09:26:30;10.00;;;1.60;;
75823;SDS011;64457;51.976;9.834;2023-05-16T09:28:58;12.30;;;1.80;;
75823;SDS011;64457;51.976;9.834;2023-05-16T09:31:26;8.77;;;1.40;;
75823;SDS011;64457;51.976;9.834;2023-05-16T09:34:00;14.77;;;2.30;;
75823;SDS011;64457;51.976;9.834;2023-05-16T09:36:28;11.17;;;2.47;;
75823;SDS011;64457;51.976;9.834;2023-05-16T09:38:59;9.27;;;1.63;;
75823;SDS011;64457;51.976;9.834;2023-05-16T09:41:28;16.73;;;2.20;;
75823;SDS011;64457;51.976;9.834;2023-05-16T09:43:59;10.43;;;1.57;;
75823;SDS011;64457;51.976;9.834;2023-05-16T09:46:32;8.53;;;1.30;;
75823;SDS011;64457;51.976;9.834;2023-05-16T09:49:00;10.17;;;1.70;;
75823;SDS011;64457;51.976;9.834;2023-05-16T09:51:28;9.03;;;1.43;;
75823;SDS011;64457;51.976;9.834;2023-05-16T09:53:57;7.53;;;1.30;;
75823;SDS011;64457;51.976;9.834;2023-05-16T09:56:24;9.60;;;1.50;;
75823;SDS011;64457;51.976;9.834;2023-05-16T09:58:54;9.97;;;1.80;;
75823;SDS011;64457;51.976;9.834;2023-05-16T10:01:21;10.70;;;1.17;;
75823;SDS011;64457;51.976;9.834;2023-05-16T10:03:49;12.50;;;1.40;;
75823;SDS011;64457;51.976;9.834;2023-05-16T10:06:16;9.40;;;1.77;;
75823;SDS011;64457;51.976;9.834;2023-05-16T10:08:44;13.77;;;1.60;;
75823;SDS011;64457;51.976;9.834;2023-05-16T10:11:13;12.20;;;1.90;;
75823;SDS011;64457;51.976;9.834;2023-05-16T10:13:42;9.33;;;1.37;;
75823;SDS011;64457;51.976;9.834;2023-05-16T10:16:16;8.40;;;1.80;;
75823;SDS011;64457;51.976;9.834;2023-05-16T10:18:46;9.60;;;1.50;;
75823;SDS011;64457;51.976;9.834;2023-05-16T10:21:14;9.10;;;1.50;;
75823;SDS011;64457;51.976;9.834;2023-05-16T10:23:45;12.63;;;1.73;;
75823;SDS011;64457;51.976;9.834;2023-05-16T10:26:16;8.33;;;1.57;;
75823;SDS011;64457;51.976;9.834;2023-05-16T10:28:43;13.30;;;1.83;;
75823;SDS011;64457;51.976;9.834;2023-05-16T10:31:11;10.53;;;1.20;;
75823;SDS011;64457;51.976;9.834;2023-05-16T10:33:41;14.00;;;1.70;;
75823;SDS011;64457;51.976;9.834;2023-05-16T10:36:09;7.87;;;1.10;;
75823;SDS011;64457;51.976;9.834;2023-05-16T10:38:37;11.67;;;1.97;;
75823;SDS011;64457;51.976;9.834;2023-05-16T10:41:05;7.37;;;1.30;;
75823;SDS011;64457;51.976;9.834;2023-05-16T10:43:33;6.77;;;1.40;;
75823;SDS011;64457;51.976;9.834;2023-05-16T10:46:01;12.13;;;1.40;;
75823;SDS011;64457;51.976;9.834;2023-05-16T10:48:31;8.30;;;1.27;;
75823;SDS011;64457;51.976;9.834;2023-05-16T10:51:01;8.40;;;1.20;;
75823;SDS011;64457;51.976;9.834;2023-05-16T10:53:30;13.30;;;1.40;;
75823;SDS011;64457;51.976;9.834;2023-05-16T10:56:05;12.00;;;1.33;;
75823;SDS011;64457;51.976;9.834;2023-05-16T10:58:43;12.57;;;1.40;;
75823;SDS011;64457;51.976;9.834;2023-05-16T11:01:20;12.77;;;2.27;;
75823;SDS011;64457;51.976;9.834;2023-05-16T11:04:02;8.50;;;1.33;;
75823;SDS011;64457;51.976;9.834;2023-05-16T11:06:34;14.30;;;1.80;;
75823;SDS011;64457;51.976;9.834;2023-05-16T11:09:23;9.80;;;1.80;;
75823;SDS011;64457;51.976;9.834;2023-05-16T11:11:53;9.03;;;1.30;;
75823;SDS011;64457;51.976;9.834;2023-05-16T11:14:25;8.27;;;1.27;;
75823;SDS011;64457;51.976;9.834;2023-05-16T11:16:59;8.57;;;1.20;;
75823;SDS011;64457;51.976;9.834;2023-05-16T11:19:30;8.93;;;1.17;;
75823;SDS011;64457;51.976;9.834;2023-05-16T11:22:08;8.97;;;1.50;;
75823;SDS011;64457;51.976;9.834;2023-05-16T11:24:51;8.23;;;1.23;;
75823;SDS011;64457;51.976;9.834;2023-05-16T11:27:24;9.63;;;1.63;;
75823;SDS011;64457;51.976;9.834;2023-05-16T11:29:53;10.67;;;1.60;;
75823;SDS011;64457;51.976;9.834;2023-05-16T11:32:25;11.33;;;1.80;;
75823;SDS011;64457;51.976;9.834;2023-05-16T11:34:52;8.20;;;1.20;;
75823;SDS011;64457;51.976;9.834;2023-05-16T11:37:21;14.17;;;1.83;;
75823;SDS011;64457;51.976;9.834;2023-05-16T11:39:48;8.00;;;1.40;;
75823;SDS011;64457;51.976;9.834;2023-05-16T11:42:15;16.00;;;1.40;;
75823;SDS011;64457;51.976;9.834;2023-05-16T11:44:43;8.23;;;1.43;;
75823;SDS011;64457;51.976;9.834;2023-05-16T11:47:10;8.23;;;1.20;;
75823;SDS011;64457;51.976;9.834;2023-05-16T11:49:38;8.10;;;1.10;;
75823;SDS011;64457;51.976;9.834;2023-05-16T11:52:06;10.63;;;1.33;;
75823;SDS011;64457;51.976;9.834;2023-05-16T11:54:36;8.50;;;1.57;;
75823;SDS011;64457;51.976;9.834;2023-05-16T11:57:03;12.80;;;1.60;;
75823;SDS011;64457;51.976;9.834;2023-05-16T11:59:31;9.33;;;1.67;;
75823;SDS011;64457;51.976;9.834;2023-05-16T12:02:02;9.63;;;1.30;;
75823;SDS011;64457;51.976;9.834;2023-05-16T12:04:30;12.23;;;2.00;;
75823;SDS011;64457;51.976;9.834;2023-05-16T12:06:58;13.53;;;1.40;;
75823;SDS011;64457;51.976;9.834;2023-05-16T12:09:26;9.63;;;2.03;;
75823;SDS011;64457;51.976;9.834;2023-05-16T12:11:55;8.83;;;1.50;;
75823;SDS011;64457;51.976;9.834;2023-05-16T12:14:23;8.27;;;1.50;;
75823;SDS011;64457;51.976;9.834;2023-05-16T12:16:51;12.27;;;1.50;;
75823;SDS011;64457;51.976;9.834;2023-05-16T12:19:19;8.07;;;1.10;;
75823;SDS011;64457;51.976;9.834;2023-05-16T12:21:47;6.63;;;1.30;;
75823;SDS011;64457;51.976;9.834;2023-05-16T12:24:18;7.87;;;1.27;;
75823;SDS011;64457;51.976;9.834;2023-05-16T12:26:46;11.67;;;1.10;;
75823;SDS011;64457;51.976;9.834;2023-05-16T12:29:14;8.03;;;0.90;;
75823;SDS011;64457;51.976;9.834;2023-05-16T12:31:41;13.57;;;1.60;;
75823;SDS011;64457;51.976;9.834;2023-05-16T12:34:15;6.80;;;0.97;;
75823;SDS011;64457;51.976;9.834;2023-05-16T12:36:46;7.33;;;1.27;;
75823;SDS011;64457;51.976;9.834;2023-05-16T12:39:17;8.53;;;1.17;;
75823;SDS011;64457;51.976;9.834;2023-05-16T12:41:45;6.10;;;0.90;;
75823;SDS011;64457;51.976;9.834;2023-05-16T12:44:13;6.20;;;0.80;;
75823;SDS011;64457;51.976;9.834;2023-05-16T12:46:43;8.60;;;1.00;;
75823;SDS011;64457;51.976;9.834;2023-05-16T12:49:12;7.10;;;1.07;;
75823;SDS011;64457;51.976;9.834;2023-05-16T12:51:46;7.93;;;1.33;;
75823;SDS011;64457;51.976;9.834;2023-05-16T12:54:15;6.67;;;1.10;;
75823;SDS011;64457;51.976;9.834;2023-05-16T12:56:42;6.67;;;0.97;;
75823;SDS011;64457;51.976;9.834;2023-05-16T12:59:10;8.50;;;1.10;;
75823;SDS011;64457;51.976;9.834;2023-05-16T13:01:39;12.47;;;1.20;;
75823;SDS011;64457;51.976;9.834;2023-05-16T13:04:08;5.93;;;1.00;;
75823;SDS011;64457;51.976;9.834;2023-05-16T13:06:39;6.30;;;0.90;;
75823;SDS011;64457;51.976;9.834;2023-05-16T13:09:07;9.63;;;1.20;;
75823;SDS011;64457;51.976;9.834;2023-05-16T13:11:35;8.37;;;1.80;;
75823;SDS011;64457;51.976;9.834;2023-05-16T13:14:02;7.50;;;1.80;;
75823;SDS011;64457;51.976;9.834;2023-05-16T13:16:30;7.40;;;1.30;;
75823;SDS011;64457;51.976;9.834;2023-05-16T13:18:58;6.67;;;1.10;;
75823;SDS011;64457;51.976;9.834;2023-05-16T13:21:26;8.57;;;1.20;;
75823;SDS011;64457;51.976;9.834;2023-05-16T13:23:55;6.70;;;1.10;;
75823;SDS011;64457;51.976;9.834;2023-05-16T13:26:23;6.57;;;1.00;;
75823;SDS011;64457;51.976;9.834;2023-05-16T13:28:50;10.50;;;1.47;;
75823;SDS011;64457;51.976;9.834;2023-05-16T13:31:19;8.17;;;1.23;;
75823;SDS011;64457;51.976;9.834;2023-05-16T13:33:47;6.50;;;1.40;;
75823;SDS011;64457;51.976;9.834;2023-05-16T13:36:16;5.87;;;1.00;;
75823;SDS011;64457;51.976;9.834;2023-05-16T13:38:43;8.00;;;1.57;;
75823;SDS011;64457;51.976;9.834;2023-05-16T13:41:10;6.20;;;1.07;;
75823;SDS011;64457;51.976;9.834;2023-05-16T13:43:38;8.30;;;1.30;;
75823;SDS011;64457;51.976;9.834;2023-05-16T13:46:05;9.43;;;1.00;;
75823;SDS011;64457;51.976;9.834;2023-05-16T13:48:33;8.73;;;1.20;;
75823;SDS011;64457;51.976;9.834;2023-05-16T13:51:00;10.60;;;1.23;;
75823;SDS011;64457;51.976;9.834;2023-05-16T13:53:28;7.87;;;1.23;;
75823;SDS011;64457;51.976;9.834;2023-05-16T13:55:56;7.93;;;1.40;;
75823;SDS011;64457;51.976;9.834;2023-05-16T13:58:23;9.10;;;1.30;;
75823;SDS011;64457;51.976;9.834;2023-05-16T14:00:51;10.57;;;1.30;;
75823;SDS011;64457;51.976;9.834;2023-05-16T14:03:18;9.23;;;1.53;;
75823;SDS011;64457;51.976;9.834;2023-05-16T14:05:47;6.80;;;1.00;;
75823;SDS011;64457;51.976;9.834;2023-05-16T14:08:14;7.63;;;1.03;;
75823;SDS011;64457;51.976;9.834;2023-05-16T14:10:42;7.37;;;1.67;;
75823;SDS011;64457;51.976;9.834;2023-05-16T14:13:10;9.13;;;1.33;;
75823;SDS011;64457;51.976;9.834;2023-05-16T14:15:37;8.63;;;2.00;;
75823;SDS011;64457;51.976;9.834;2023-05-16T14:18:05;8.40;;;1.87;;
75823;SDS011;64457;51.976;9.834;2023-05-16T14:20:32;10.03;;;1.77;;
75823;SDS011;64457;51.976;9.834;2023-05-16T14:23:00;9.00;;;1.33;;
75823;SDS011;64457;51.976;9.834;2023-05-16T14:25:27;8.97;;;1.40;;
75823;SDS011;64457;51.976;9.834;2023-05-16T14:27:55;7.73;;;1.50;;
75823;SDS011;64457;51.976;9.834;2023-05-16T14:30:23;8.20;;;1.13;;
75823;SDS011;64457;51.976;9.834;2023-05-16T14:32:50;6.03;;;1.20;;
75823;SDS011;64457;51.976;9.834;2023-05-16T14:35:17;8.37;;;1.50;;
75823;SDS011;64457;51.976;9.834;2023-05-16T14:37:45;12.03;;;1.70;;
75823;SDS011;64457;51.976;9.834;2023-05-16T14:40:12;10.73;;;1.40;;
75823;SDS011;64457;51.976;9.834;2023-05-16T14:42:39;7.00;;;1.40;;
75823;SDS011;64457;51.976;9.834;2023-05-16T14:45:09;12.17;;;1.47;;